Relevés horaires La Dôle (Suisse)


Relevés horaires à La Dôle - Mercredi 16 Janv. 2008
Heure UTC1 Température [°C] Vent [km/h] Hum. [%] Pres.4 [hPa] Visi. [Km] Nébu. [octa] Préc.5 [mm] Cond.
2m. Res. Ros. Dir.2 Vit. Moy. Raf.3
23:00 -3.2 -11.9 -3.2 ONO 42.6 42.6 57.4 100 850(1.5/3h) -- -- -- --
22:00 -2.8 -11.2 -2.9 ONO 40.7 40.7 53.7 99 850(1.4/3h) -- -- -- --
21:00 -2.5 -10.5 -2.9 O 37.0 44.4 61.1 97 850(1.8/3h) -- -- -- --
20:00 -2.5 -8.7 -2.8 SSO 22.2 33.3 46.3 98 850 -- -- -- --
19:00 -2.5 -7.5 -2.6 SO 14.8 42.6 61.1 99 850(2.4/3h) -- -- -- --
18:00 -2.4 -9.6 -3.3 SO 29.6 46.3 68.5 94 850(1.7/3h) -- -- -- --
17:00 -2.1 -10.3 -2.8 SSO 40.7 44.4 61.1 95 850 -- -- -- --
16:00 -2.1 -10.1 -2.7 SSO 38.9 38.9 57.4 96 850(0.7/3h) -- -- -- --
15:00 -2.0 -9.6 -2.5 SO 35.2 46.3 68.5 96 850 -- -- -- --
14:00 -2.2 -10.1 -2.8 SO 37.0 46.3 68.5 96 850(0.1/3h) -- -- -- --
13:00 -2.0 -10.4 -2.8 SSO 44.4 46.3 61.1 94 850(-0.3/3h) -- -- -- --
12:00 -1.8 -9.9 -2.5 S 40.7 74.1 100.0 95 850 -- -- -- --
11:00 -1.7 -9.2 -2.4 S 35.2 42.6 51.9 95 850(0.1/3h) -- -- -- --
10:00 -2.2 -10.6 -2.8 SSO 42.6 42.6 51.9 96 850(0.7/3h) -- -- -- --
09:00 -3.1 -10.9 -3.9 SO 33.3 63.0 88.9 94 850(0.8/3h) -- -- -- --
08:00 -3.4 -10.4 -3.7 SSO 25.9 44.4 57.4 98 850(1.6/3h) -- -- -- --
07:00 -2.2 -10.2 -2.7 OSO 38.9 63.0 83.3 96 850(0.1/3h) -- -- -- --
06:00 -1.8 -9.5 -1.8 O 37.0 77.8 105.6 100 850(-0.4/3h) -- -- -- --
05:00 -1.8 -11.3 -2.4 O 61.1 61.1 88.9 96 850(-1.9/3h) -- -- -- --
04:00 -1.5 -9.5 -1.5 SO 40.7 63.0 98.2 100 850(-1.1/3h) -- -- -- --
03:00 -1.7 -11 -2.1 S 57.4 74.1 100.0 97 850(-0.9/3h) -- -- -- --
02:00 -1.8 -11.4 -2.4 S 63.0 74.1 100.0 96 850(-0.7/3h) -- -- -- --
01:00 -1.0 -10.3 -2.5 SSO 63.0 70.4 100.0 90 850(-0.7/3h) -- -- -- --
00:00 -0.7 -9.8 -3.8 OSO 61.1 77.8 105.6 79 850 -- -- -- --

1 Coordinated Universal Time. Actuellement il est 05:00 locale et 03:00 UTC.

2 Le vent souffle depuis la direction indiquée vers la direction oposée.

3 Les rafales max. sont disponible 40 min après l'heure du relevé.

4 Pour les stations d'altitude (plus de 600m) le géopotentiel du niveau le plus proche de la pression obligatoire est indiqué.

5 Les stations disposant d'un diffuseur peuvent indiquer "trace". Cela signifie que des précipitations ont touchés le sol mais que la quantité est inférieure à 0.1 mm.

Copyright

Les données affichées sur cette page sont la propriété exclusive de Météo Suisse.

Récapitulatif de la journée
Température [°C] Vent [km/h] Ensoleillement4 [h] Precipitations totale5 [mm] Pression [Hpa]
Min1 Max.2 Moy.3 Max. Min Max.
-2.3 -1.5 54.2 105.6 0 h 42 min 0 850.0 850.0

1 Température minimale relevée entre 18:00 UTC la veille et 18:00 UTC le jour donné.

2 Température maximale relevée entre 06:00 UTC le jour donné et 06:00 UTC le lendemain.

3 Vent moyen de la journée basé sur les relevés horaires.

4 Ensoleillement en heures relevé entre 06:00 UTC la veille et 06:00 UTC le jour donné.

5 Précipitations totales tombées entre 06:00 UTC la jour donné et 06:00 UTC le lendemain.

Graphiques horaires